createdAt,value
2022-12-05T00:01:42.563Z,106.38
2022-12-05T00:03:44.438Z,92.03
2022-12-05T00:05:45.986Z,77.28
2022-12-05T00:07:47.980Z,75.60
2022-12-05T00:09:49.627Z,109.72
2022-12-05T00:11:51.109Z,109.60
2022-12-05T00:13:55.277Z,100.97
2022-12-05T00:15:56.828Z,96.32
2022-12-05T00:17:58.290Z,117.28
2022-12-05T00:20:00.062Z,120.45
2022-12-05T00:22:01.779Z,84.45
2022-12-05T00:24:06.170Z,97.15
2022-12-05T00:26:07.761Z,112.85
2022-12-05T00:28:09.230Z,91.65
2022-12-05T00:30:11.030Z,121.03
2022-12-05T00:32:12.635Z,117.95
2022-12-05T00:34:14.384Z,123.57
2022-12-05T00:36:29.011Z,201.65
2022-12-05T00:38:30.501Z,101.88
2022-12-05T00:40:31.936Z,90.57
2022-12-05T00:42:33.376Z,101.82
2022-12-05T00:44:34.847Z,146.80
2022-12-05T00:46:36.994Z,103.63
2022-12-05T00:48:38.918Z,108.05
2022-12-05T00:50:40.342Z,128.70
2022-12-05T00:52:41.833Z,121.55
2022-12-05T00:54:43.609Z,128.63
2022-12-05T00:56:45.807Z,246.70
2022-12-05T00:58:47.874Z,93.60
2022-12-05T01:00:49.316Z,75.85
2022-12-05T01:02:50.808Z,114.15
2022-12-05T01:04:52.316Z,116.95
2022-12-05T01:06:55.963Z,104.53
2022-12-05T01:08:58.180Z,101.65
2022-12-05T01:10:59.794Z,81.60
2022-12-05T01:13:01.294Z,78.30
2022-12-05T01:15:03.038Z,121.63
2022-12-05T01:17:04.608Z,122.10
2022-12-05T01:19:10.781Z,115.93
2022-12-05T01:21:12.788Z,107.55
2022-12-05T01:23:14.358Z,133.88
2022-12-05T01:25:15.824Z,123.28
2022-12-05T01:27:17.229Z,82.22
2022-12-05T01:29:21.100Z,47.50
2022-12-05T01:31:22.648Z,102.72
2022-12-05T01:33:24.198Z,111.53
2022-12-05T01:35:25.638Z,100.93
2022-12-05T01:37:27.095Z,75.68
2022-12-05T01:39:28.579Z,92.93
2022-12-05T01:41:34.072Z,121.45
2022-12-05T01:43:56.987Z,107.38
2022-12-05T01:45:58.685Z,65.95
2022-12-05T01:48:09.640Z,95.55
2022-12-05T01:50:12.925Z,103.03
2022-12-05T01:52:19.606Z,104.43
2022-12-05T01:54:22.908Z,90.55
2022-12-05T01:56:24.456Z,104.88
2022-12-05T01:58:31.296Z,124.68
2022-12-05T02:00:32.967Z,91.85
2022-12-05T02:02:34.534Z,66.47
2022-12-05T02:05:01.131Z,107.60
2022-12-05T02:07:02.582Z,91.57
2022-12-05T02:09:04.136Z,96.40
2022-12-05T02:11:07.481Z,61.90
2022-12-05T02:13:34.625Z,66.55
2022-12-05T02:15:58.902Z,78.82
2022-12-05T02:18:16.566Z,99.97
2022-12-05T02:20:36.156Z,93.30
2022-12-05T02:24:57.855Z,128.95
2022-12-05T02:27:19.887Z,128.65
2022-12-05T02:29:39.499Z,85.72
2022-12-05T02:34:31.545Z,94.70
2022-12-05T02:36:41.336Z,92.97
2022-12-05T02:38:54.112Z,88.80
2022-12-05T02:41:17.135Z,90.03
2022-12-05T02:43:43.301Z,98.32
2022-12-05T02:45:49.585Z,103.05
2022-12-05T02:47:53.762Z,82.10
2022-12-05T02:49:57.066Z,100.88
2022-12-05T02:52:00.705Z,73.55
2022-12-05T02:54:07.777Z,51.78
2022-12-05T02:56:10.319Z,54.75
2022-12-05T02:58:21.092Z,74.03
2022-12-05T03:00:22.579Z,87.53
2022-12-05T03:02:31.608Z,76.93
2022-12-05T03:04:33.409Z,93.47
2022-12-05T03:06:39.380Z,64.65
2022-12-05T03:08:48.182Z,95.40
2022-12-05T03:10:51.677Z,85.78
2022-12-05T03:13:00.463Z,184.27
2022-12-05T03:15:07.771Z,106.13
2022-12-05T03:17:18.657Z,90.80
2022-12-05T03:20:09.524Z,88.45
2022-12-05T03:22:19.315Z,79.82
2022-12-05T03:24:21.104Z,67.82
2022-12-05T03:26:43.561Z,105.35
2022-12-05T03:29:22.781Z,80.68
2022-12-05T03:31:41.625Z,124.88
2022-12-05T03:33:46.450Z,55.80
2022-12-05T03:36:06.745Z,111.07
2022-12-05T03:38:26.630Z,91.18
2022-12-05T03:40:53.711Z,79.75
2022-12-05T03:43:05.103Z,73.82
2022-12-05T03:45:11.726Z,59.00
2022-12-05T03:47:19.366Z,71.93
2022-12-05T03:49:47.822Z,73.70
2022-12-05T03:51:58.612Z,81.85
2022-12-05T03:54:09.467Z,124.22
2022-12-05T03:56:16.554Z,90.90
2022-12-05T03:58:26.380Z,90.32
2022-12-05T04:00:32.234Z,84.45
2022-12-05T04:03:05.471Z,88.38
2022-12-05T04:05:13.337Z,71.57
2022-12-05T04:07:16.868Z,84.82
2022-12-05T04:09:25.132Z,87.13
2022-12-05T04:11:29.281Z,83.80
2022-12-05T04:13:40.678Z,86.28
2022-12-05T04:16:02.642Z,114.10
2022-12-05T04:18:04.412Z,72.78
2022-12-05T04:20:51.437Z,72.68
2022-12-05T04:22:52.962Z,92.28
2022-12-05T04:25:16.079Z,96.57
2022-12-05T04:27:36.993Z,100.05
2022-12-05T04:30:04.458Z,79.50
2022-12-05T04:32:11.470Z,99.05
2022-12-05T04:34:14.651Z,140.98
2022-12-05T04:36:22.152Z,145.18
2022-12-05T04:38:30.255Z,109.95
2022-12-05T04:40:38.216Z,86.07
2022-12-05T04:42:42.759Z,102.53
2022-12-05T04:44:49.884Z,85.03
2022-12-05T04:46:55.042Z,73.53
2022-12-05T04:49:01.393Z,98.20
2022-12-05T04:51:04.349Z,111.78
2022-12-05T04:53:08.382Z,152.43
2022-12-05T04:55:13.389Z,102.95
2022-12-05T04:57:20.764Z,94.85
2022-12-05T04:59:22.347Z,124.80
2022-12-05T05:01:34.245Z,121.35
2022-12-05T05:03:41.905Z,96.25
2022-12-05T05:05:48.539Z,91.55
2022-12-05T05:07:55.066Z,94.95
2022-12-05T05:09:57.464Z,40.63
2022-12-05T05:11:59.197Z,96.28
2022-12-05T05:14:01.162Z,79.22
2022-12-05T05:16:03.025Z,91.90
2022-12-05T05:18:04.595Z,98.22
2022-12-05T05:20:24.856Z,108.40
2022-12-05T05:22:27.108Z,113.78
2022-12-05T05:24:28.743Z,89.95
2022-12-05T05:26:31.877Z,78.10
2022-12-05T05:28:33.333Z,94.07
2022-12-05T05:30:34.866Z,89.97
2022-12-05T05:32:36.356Z,82.47
2022-12-05T05:34:37.820Z,117.80
2022-12-05T05:36:39.678Z,139.18
2022-12-05T05:38:44.022Z,109.57
2022-12-05T05:40:45.533Z,111.07
2022-12-05T05:42:48.651Z,71.47
2022-12-05T05:44:50.210Z,122.57
2022-12-05T05:46:51.703Z,173.20
2022-12-05T05:48:53.610Z,70.18
2022-12-05T05:50:55.050Z,75.10
2022-12-05T05:52:56.532Z,75.35
2022-12-05T05:54:57.985Z,121.68
2022-12-05T05:56:59.418Z,85.88
2022-12-05T05:59:03.075Z,92.28
2022-12-05T06:01:05.662Z,128.32
2022-12-05T06:03:08.385Z,156.98
2022-12-05T06:05:10.041Z,151.80
2022-12-05T06:07:11.499Z,134.63
2022-12-05T06:09:12.974Z,111.80
2022-12-05T06:11:24.968Z,93.38
2022-12-05T06:13:27.571Z,140.85
2022-12-05T06:15:29.148Z,119.53
2022-12-05T06:17:30.647Z,134.10
2022-12-05T06:19:32.221Z,205.52
2022-12-05T06:21:33.680Z,309.13
2022-12-05T06:23:38.997Z,169.18
2022-12-05T06:25:40.437Z,172.60
2022-12-05T06:27:42.266Z,124.65
2022-12-05T06:29:43.810Z,110.05
2022-12-05T06:31:45.329Z,123.78
2022-12-05T06:33:47.220Z,130.85
2022-12-05T06:35:48.781Z,115.85
2022-12-05T06:37:50.335Z,160.90
2022-12-05T06:39:52.695Z,152.10
2022-12-05T06:41:54.195Z,171.45
2022-12-05T06:44:01.643Z,178.48
2022-12-05T06:46:08.908Z,199.98
2022-12-05T06:48:10.516Z,144.98
2022-12-05T06:50:12.817Z,160.82
2022-12-05T06:52:14.306Z,187.43
2022-12-05T06:54:15.735Z,179.88
2022-12-05T06:56:19.738Z,163.02
2022-12-05T06:58:21.216Z,160.40
2022-12-05T07:00:41.419Z,74.72
2022-12-05T07:02:43.420Z,173.20
2022-12-05T07:04:44.900Z,160.43
2022-12-05T07:06:50.790Z,246.07
2022-12-05T07:08:52.851Z,169.80
2022-12-05T07:10:54.693Z,120.50
2022-12-05T07:12:56.527Z,129.80
2022-12-05T07:14:58.013Z,108.25
2022-12-05T07:16:59.658Z,164.85
2022-12-05T07:19:01.186Z,119.20
2022-12-05T07:21:12.544Z,156.10
2022-12-05T07:23:14.775Z,136.23
2022-12-05T07:25:16.980Z,168.52
2022-12-05T07:27:25.079Z,237.27
2022-12-05T07:29:28.792Z,145.40
2022-12-05T07:31:30.486Z,144.45
2022-12-05T07:33:32.137Z,89.25
2022-12-05T07:35:33.571Z,127.80
2022-12-05T07:37:35.054Z,142.43
2022-12-05T07:39:36.590Z,125.40
2022-12-05T07:41:38.151Z,125.15
2022-12-05T07:43:39.741Z,128.85
2022-12-05T07:45:41.255Z,160.40
2022-12-05T07:47:42.789Z,166.55
2022-12-05T07:49:44.372Z,94.63
2022-12-05T07:51:45.949Z,132.13
2022-12-05T07:53:48.066Z,90.50
2022-12-05T07:55:49.535Z,97.57
2022-12-05T07:57:50.980Z,118.55
2022-12-05T07:59:52.403Z,137.68
2022-12-05T08:01:53.966Z,157.10
2022-12-05T08:03:57.851Z,165.13
2022-12-05T08:06:04.450Z,120.22
2022-12-05T08:08:06.067Z,132.85
2022-12-05T08:10:08.964Z,149.60
2022-12-05T08:12:10.442Z,141.25
2022-12-05T08:14:11.901Z,103.53
2022-12-05T08:16:16.094Z,91.35
2022-12-05T08:18:17.798Z,124.68
2022-12-05T08:20:19.357Z,104.30
2022-12-05T08:22:21.306Z,81.40
2022-12-05T08:24:32.448Z,80.70
2022-12-05T08:26:42.174Z,81.38
2022-12-05T08:28:44.054Z,85.35
2022-12-05T08:30:45.627Z,204.95
2022-12-05T08:32:47.116Z,107.05
2022-12-05T08:34:48.617Z,93.00
2022-12-05T08:36:56.530Z,93.50
2022-12-05T08:39:14.314Z,61.97
2022-12-05T08:41:34.457Z,66.13
2022-12-05T08:43:42.813Z,81.57
2022-12-05T08:45:53.897Z,83.88
2022-12-05T08:47:55.411Z,73.93
2022-12-05T08:49:57.561Z,80.30
2022-12-05T08:51:59.258Z,75.38
2022-12-05T08:54:04.934Z,70.80
2022-12-05T08:56:08.276Z,85.07
2022-12-05T08:58:19.323Z,103.35
2022-12-05T09:00:30.696Z,101.13
2022-12-05T09:02:32.248Z,73.80
2022-12-05T09:04:33.738Z,73.32
2022-12-05T09:06:36.479Z,72.60
2022-12-05T09:08:41.364Z,54.03
2022-12-05T09:10:43.536Z,67.22
2022-12-05T09:12:51.582Z,59.35
2022-12-05T09:14:52.991Z,62.92
2022-12-05T09:16:55.710Z,54.47
2022-12-05T09:18:57.641Z,30.95
2022-12-05T09:21:08.299Z,60.00
2022-12-05T09:23:15.749Z,59.30
2022-12-05T09:25:21.971Z,53.25
2022-12-05T09:27:34.185Z,48.40
2022-12-05T09:29:35.955Z,82.72
2022-12-05T09:31:38.679Z,94.47
2022-12-05T09:33:40.714Z,61.33
2022-12-05T09:35:46.516Z,50.78
2022-12-05T09:37:48.175Z,52.03
2022-12-05T09:40:06.726Z,50.17
2022-12-05T09:42:40.888Z,55.47
2022-12-05T09:45:00.968Z,56.55
2022-12-05T09:47:13.241Z,49.25
2022-12-05T09:49:14.984Z,77.25
2022-12-05T09:51:16.755Z,53.00
2022-12-05T09:53:33.386Z,64.00
2022-12-05T09:56:05.772Z,55.03
2022-12-05T09:58:51.176Z,70.80
2022-12-05T10:01:21.626Z,59.78
2022-12-05T10:04:12.247Z,48.33
2022-12-05T10:06:25.124Z,66.18
2022-12-05T10:08:33.499Z,60.95
2022-12-05T10:10:43.728Z,48.95
2022-12-05T10:13:08.534Z,55.63
2022-12-05T10:15:18.342Z,46.45
2022-12-05T10:17:38.007Z,43.85
2022-12-05T10:21:56.968Z,47.05
2022-12-05T10:24:02.685Z,51.63
2022-12-05T10:26:13.309Z,51.70
2022-12-05T10:28:36.596Z,48.90
2022-12-05T10:31:00.593Z,48.80
2022-12-05T10:33:13.898Z,54.70
2022-12-05T10:35:17.042Z,52.63
2022-12-05T10:37:30.807Z,58.42
2022-12-05T10:39:42.262Z,43.38
2022-12-05T10:41:56.777Z,44.78
2022-12-05T10:44:13.657Z,53.85
2022-12-05T10:46:27.986Z,53.00
2022-12-05T10:48:49.811Z,43.35
2022-12-05T10:50:58.365Z,43.90
2022-12-05T10:53:10.938Z,34.88
2022-12-05T10:56:00.337Z,45.10
2022-12-05T10:58:24.062Z,41.75
2022-12-05T11:00:30.326Z,44.60
2022-12-05T11:02:34.291Z,45.10
2022-12-05T11:05:00.038Z,49.58
2022-12-05T11:07:04.747Z,45.45
2022-12-05T11:09:18.322Z,42.92
2022-12-05T11:11:23.730Z,56.10
2022-12-05T11:13:28.861Z,45.05
2022-12-05T11:15:44.292Z,76.53
2022-12-05T11:18:31.055Z,45.10
2022-12-05T11:20:36.913Z,65.78
2022-12-05T11:22:38.353Z,56.50
2022-12-05T11:24:48.994Z,33.90
2022-12-05T11:27:23.229Z,42.45
2022-12-05T11:29:37.023Z,46.78
2022-12-05T11:31:38.619Z,45.85
2022-12-05T11:33:42.085Z,43.40
2022-12-05T11:35:43.749Z,48.33
2022-12-05T11:37:51.672Z,41.95
2022-12-05T11:39:55.357Z,46.47
2022-12-05T11:42:27.409Z,53.35
2022-12-05T11:44:40.840Z,45.70
2022-12-05T11:46:56.124Z,44.05
2022-12-05T11:49:36.273Z,43.58
2022-12-05T11:51:50.744Z,39.63
2022-12-05T11:55:04.616Z,45.70
2022-12-05T11:57:23.317Z,39.47
2022-12-05T11:59:55.249Z,49.58
2022-12-05T12:02:15.555Z,40.50
2022-12-05T12:05:20.043Z,60.95
2022-12-05T12:08:05.580Z,51.60
2022-12-05T12:10:26.174Z,49.60
2022-12-05T12:13:12.087Z,45.13
2022-12-05T12:15:54.945Z,85.25
2022-12-05T12:18:19.787Z,44.67
2022-12-05T12:21:04.059Z,48.45
2022-12-05T12:23:36.398Z,40.25
2022-12-05T12:25:56.800Z,42.22
2022-12-05T12:28:24.192Z,45.45
2022-12-05T12:30:40.730Z,50.45
2022-12-05T12:33:05.547Z,49.30
2022-12-05T12:35:18.953Z,59.03
2022-12-05T12:37:38.965Z,55.08
2022-12-05T12:39:53.539Z,72.53
2022-12-05T12:42:07.313Z,52.10
2022-12-05T12:45:01.159Z,49.85
2022-12-05T12:47:15.509Z,47.08
2022-12-05T12:49:22.725Z,49.95
2022-12-05T12:51:32.036Z,48.05
2022-12-05T12:54:40.135Z,42.22
2022-12-05T12:57:24.289Z,46.85
2022-12-05T12:59:58.380Z,66.28
2022-12-05T13:02:25.214Z,47.22
2022-12-05T13:04:41.961Z,50.75
2022-12-05T13:06:57.307Z,84.18
2022-12-05T13:09:04.963Z,58.00
2022-12-05T13:11:10.324Z,59.13
2022-12-05T13:13:18.241Z,53.40
2022-12-05T13:15:53.811Z,58.05
2022-12-05T13:17:55.500Z,70.93
2022-12-05T13:19:57.864Z,80.55
2022-12-05T13:21:59.959Z,53.63
2022-12-05T13:24:13.581Z,61.15
2022-12-05T13:26:24.117Z,77.28
2022-12-05T13:28:45.140Z,54.03
2022-12-05T13:31:13.827Z,53.33
2022-12-05T13:33:28.875Z,62.60
2022-12-05T13:35:57.877Z,71.32
2022-12-05T13:38:17.793Z,75.00
2022-12-05T13:41:03.736Z,64.53
2022-12-05T13:43:26.159Z,101.28
2022-12-05T13:45:39.697Z,107.10
2022-12-05T13:47:59.190Z,123.28
2022-12-05T13:50:22.599Z,82.25
2022-12-05T13:52:29.033Z,81.60
2022-12-05T13:54:35.654Z,65.25
2022-12-05T13:56:49.751Z,51.13
2022-12-05T13:59:01.069Z,78.38
2022-12-05T14:01:27.970Z,176.15
2022-12-05T14:03:35.607Z,140.65
2022-12-05T14:05:55.279Z,112.47
2022-12-05T14:08:29.057Z,103.13
2022-12-05T14:10:30.479Z,86.20
2022-12-05T14:12:48.736Z,87.13
2022-12-05T14:15:00.678Z,72.65
2022-12-05T14:17:05.925Z,75.20
2022-12-05T14:19:40.926Z,101.43
2022-12-05T14:21:51.885Z,95.53
2022-12-05T14:24:05.578Z,97.03
2022-12-05T14:26:32.833Z,82.47
2022-12-05T14:28:52.340Z,115.07
2022-12-05T14:31:22.048Z,78.38
2022-12-05T14:35:31.981Z,109.25
2022-12-05T14:37:36.326Z,103.75
2022-12-05T14:39:51.603Z,98.25
2022-12-05T14:42:05.477Z,161.73
2022-12-05T14:44:18.515Z,115.57
2022-12-05T14:46:30.105Z,103.80
2022-12-05T14:48:35.477Z,110.00
2022-12-05T14:50:41.585Z,129.73
2022-12-05T14:52:45.423Z,154.65
2022-12-05T14:54:47.467Z,147.23
2022-12-05T14:56:52.746Z,142.13
2022-12-05T14:59:16.106Z,198.40
2022-12-05T15:01:35.263Z,166.18
2022-12-05T15:03:40.297Z,227.15
2022-12-05T15:05:44.196Z,161.15
2022-12-05T15:07:46.992Z,109.25
2022-12-05T15:10:00.129Z,126.90
2022-12-05T15:12:09.564Z,220.10
2022-12-05T15:14:19.705Z,171.95
2022-12-05T15:18:44.413Z,119.78
2022-12-05T15:20:52.390Z,121.95
2022-12-05T15:22:54.170Z,220.02
2022-12-05T15:24:55.801Z,492.15
2022-12-05T15:26:58.994Z,597.15
2022-12-05T15:29:14.849Z,139.48
2022-12-05T15:31:16.387Z,166.15
2022-12-05T15:33:17.815Z,92.70
2022-12-05T15:35:20.541Z,98.78
2022-12-05T15:37:34.175Z,159.30
2022-12-05T15:39:56.628Z,238.48
2022-12-05T15:41:58.134Z,219.38
2022-12-05T15:43:59.604Z,336.48
2022-12-05T15:46:24.212Z,230.45
2022-12-05T15:48:26.062Z,148.45
2022-12-05T15:50:34.959Z,496.67
2022-12-05T15:52:42.759Z,459.85
2022-12-05T15:54:45.680Z,438.55
2022-12-05T15:56:52.823Z,432.55
2022-12-05T15:59:11.923Z,377.25
2022-12-05T16:01:17.443Z,217.00
2022-12-05T16:03:27.230Z,623.50
2022-12-05T16:05:39.807Z,401.90
2022-12-05T16:07:41.606Z,511.42
2022-12-05T16:09:45.891Z,173.07
2022-12-05T16:12:05.648Z,197.57
2022-12-05T16:16:15.993Z,154.40
2022-12-05T16:18:25.663Z,188.07
2022-12-05T16:20:33.422Z,115.82
2022-12-05T16:22:35.212Z,135.57
2022-12-05T16:25:00.108Z,117.63
2022-12-05T16:27:36.385Z,266.92
2022-12-05T16:29:37.885Z,160.93
2022-12-05T16:31:40.041Z,152.20
2022-12-05T16:33:43.669Z,183.93
2022-12-05T16:35:46.305Z,315.88
2022-12-05T16:37:47.854Z,270.05
2022-12-05T16:39:49.378Z,320.55
2022-12-05T16:41:51.392Z,274.83
2022-12-05T16:43:54.025Z,101.30
2022-12-05T16:45:58.671Z,90.38
2022-12-05T16:48:00.349Z,98.32
2022-12-05T16:50:23.139Z,108.63
2022-12-05T16:52:30.762Z,133.68
2022-12-05T16:54:32.276Z,245.55
2022-12-05T16:56:33.942Z,155.68
2022-12-05T16:58:35.763Z,227.60
2022-12-05T17:00:37.368Z,133.68
2022-12-05T17:02:38.900Z,97.45
2022-12-05T17:04:41.008Z,85.40
2022-12-05T17:06:42.557Z,105.43
2022-12-05T17:08:44.485Z,222.18
2022-12-05T17:10:46.349Z,168.30
2022-12-05T17:12:47.935Z,361.13
2022-12-05T17:14:49.773Z,423.67
2022-12-05T17:16:51.256Z,250.57
2022-12-05T17:18:53.040Z,307.25
2022-12-05T17:20:56.846Z,241.77
2022-12-05T17:22:58.281Z,151.70
2022-12-05T17:25:01.018Z,82.63
2022-12-05T17:27:02.648Z,82.53
2022-12-05T17:29:04.137Z,123.43
2022-12-05T17:31:06.613Z,156.63
2022-12-05T17:33:13.154Z,160.90
2022-12-05T17:35:16.281Z,143.93
2022-12-05T17:37:17.807Z,101.53
2022-12-05T17:39:22.432Z,137.73
2022-12-05T17:41:28.088Z,120.80
2022-12-05T17:43:29.602Z,139.38
2022-12-05T17:45:31.236Z,154.75
2022-12-05T17:47:32.710Z,137.00
2022-12-05T17:49:34.153Z,123.65
2022-12-05T17:51:48.065Z,144.40
2022-12-05T17:53:57.061Z,154.45
2022-12-05T17:55:58.578Z,149.48
2022-12-05T17:58:00.070Z,149.80
2022-12-05T18:00:01.628Z,218.60
2022-12-05T18:02:03.078Z,314.20
2022-12-05T18:04:04.671Z,228.63
2022-12-05T18:06:06.437Z,143.48
2022-12-05T18:08:09.163Z,153.77
2022-12-05T18:10:17.600Z,165.15
2022-12-05T18:12:19.164Z,158.02
2022-12-05T18:14:20.630Z,147.93
2022-12-05T18:16:22.435Z,143.32
2022-12-05T18:18:24.189Z,173.68
2022-12-05T18:20:25.632Z,159.07
2022-12-05T18:22:27.975Z,182.23
2022-12-05T18:24:29.528Z,170.43
2022-12-05T18:26:31.174Z,180.95
2022-12-05T18:28:36.265Z,206.48
2022-12-05T18:30:37.865Z,144.88
2022-12-05T18:32:39.460Z,185.65
2022-12-05T18:34:41.016Z,121.38
2022-12-05T18:36:42.535Z,152.25
2022-12-05T18:38:53.582Z,160.80
2022-12-05T18:40:59.684Z,157.40
2022-12-05T18:43:01.190Z,156.65
2022-12-05T18:45:03.725Z,160.18
2022-12-05T18:47:05.239Z,172.93
2022-12-05T18:49:06.682Z,186.23
2022-12-05T18:51:12.117Z,167.57
2022-12-05T18:53:13.573Z,327.67
2022-12-05T18:55:23.478Z,218.77
2022-12-05T18:57:32.917Z,434.88
2022-12-05T18:59:34.359Z,226.70
2022-12-05T19:01:38.687Z,267.05
2022-12-05T19:03:40.276Z,245.85
2022-12-05T19:05:43.395Z,273.63
2022-12-05T19:07:46.529Z,143.73
2022-12-05T19:09:48.146Z,137.60
2022-12-05T19:11:54.818Z,130.88
2022-12-05T19:13:58.394Z,180.57
2022-12-05T19:16:08.515Z,163.73
2022-12-05T19:18:09.986Z,114.93
2022-12-05T19:20:12.341Z,113.00
2022-12-05T19:22:13.759Z,87.55
2022-12-05T19:24:18.079Z,96.85
2022-12-05T19:26:19.586Z,85.88
2022-12-05T19:28:21.154Z,98.45
2022-12-05T19:30:22.606Z,118.13
2022-12-05T19:32:24.060Z,173.57
2022-12-05T19:34:25.721Z,119.40
2022-12-05T19:36:35.503Z,89.68
2022-12-05T19:40:39.242Z,75.82
2022-12-05T19:42:40.726Z,85.55
2022-12-05T19:44:42.207Z,87.78
2022-12-05T19:46:44.099Z,80.80
2022-12-05T19:48:46.290Z,99.30
2022-12-05T19:50:58.370Z,239.07
2022-12-05T19:52:59.796Z,102.50
2022-12-05T19:55:01.337Z,107.72
2022-12-05T19:57:02.886Z,148.85
2022-12-05T19:59:05.578Z,134.63
2022-12-05T20:01:18.853Z,164.00
2022-12-05T20:03:20.380Z,243.88
2022-12-05T20:05:21.873Z,209.45
2022-12-05T20:07:23.529Z,183.82
2022-12-05T20:09:25.137Z,178.52
2022-12-05T20:11:29.089Z,204.50
2022-12-05T20:13:47.632Z,229.77
2022-12-05T20:15:49.632Z,246.85
2022-12-05T20:17:53.298Z,229.65
2022-12-05T20:19:55.128Z,324.58
2022-12-05T20:21:58.659Z,262.33
2022-12-05T20:24:01.875Z,185.02
2022-12-05T20:26:04.958Z,177.23
2022-12-05T20:28:08.833Z,219.90
2022-12-05T20:30:10.501Z,220.63
2022-12-05T20:32:11.982Z,199.43
2022-12-05T20:34:15.203Z,174.68
2022-12-05T20:36:19.771Z,195.82
2022-12-05T20:38:23.825Z,191.98
2022-12-05T20:40:25.262Z,202.85
2022-12-05T20:42:26.763Z,189.65
2022-12-05T20:44:28.343Z,198.63
2022-12-05T20:46:31.598Z,211.25
2022-12-05T20:48:34.506Z,226.05
2022-12-05T20:50:35.973Z,201.52
2022-12-05T20:52:41.014Z,183.70
2022-12-05T20:54:45.280Z,164.77
2022-12-05T20:56:46.821Z,147.70
2022-12-05T20:58:51.192Z,137.73
2022-12-05T21:01:00.586Z,133.95
2022-12-05T21:03:02.152Z,145.88
2022-12-05T21:05:03.786Z,110.07
2022-12-05T21:07:05.240Z,116.80
2022-12-05T21:09:15.218Z,120.18
2022-12-05T21:11:16.893Z,116.60
2022-12-05T21:13:19.650Z,139.95
2022-12-05T21:15:21.562Z,147.13
2022-12-05T21:17:23.052Z,131.20
2022-12-05T21:19:26.021Z,134.88
2022-12-05T21:21:29.030Z,174.20
2022-12-05T21:23:30.993Z,120.40
2022-12-05T21:25:33.521Z,145.35
2022-12-05T21:27:35.035Z,98.22
2022-12-05T21:29:36.472Z,117.35
2022-12-05T21:31:40.585Z,121.30
2022-12-05T21:33:46.319Z,165.32
2022-12-05T21:35:54.966Z,90.07
2022-12-05T21:37:56.456Z,84.78
2022-12-05T21:39:58.373Z,76.20
2022-12-05T21:42:00.195Z,86.68
2022-12-05T21:44:01.663Z,81.32
2022-12-05T21:46:03.879Z,91.00
2022-12-05T21:48:05.563Z,91.05
2022-12-05T21:50:07.605Z,81.05
2022-12-05T21:52:09.050Z,90.68
2022-12-05T21:54:10.651Z,100.43
2022-12-05T21:56:18.343Z,111.60
2022-12-05T21:58:19.773Z,129.07
2022-12-05T22:00:21.383Z,151.10
2022-12-05T22:02:22.908Z,154.45
2022-12-05T22:04:24.551Z,136.43
2022-12-05T22:06:26.151Z,124.20
2022-12-05T22:08:29.690Z,157.15
2022-12-05T22:10:31.143Z,175.70
2022-12-05T22:12:34.063Z,154.77
2022-12-05T22:14:35.524Z,124.00
2022-12-05T22:16:37.020Z,134.65
2022-12-05T22:18:39.249Z,122.75
2022-12-05T22:20:40.680Z,112.38
2022-12-05T22:22:42.236Z,119.28
2022-12-05T22:24:43.758Z,145.75
2022-12-05T22:26:45.176Z,164.60
2022-12-05T22:28:47.961Z,157.00
2022-12-05T22:30:49.466Z,145.50
2022-12-05T22:32:53.235Z,159.52
2022-12-05T22:34:56.958Z,148.38
2022-12-05T22:37:02.043Z,155.55
2022-12-05T22:39:04.445Z,151.02
2022-12-05T22:41:17.995Z,149.70
2022-12-05T22:43:19.443Z,172.48
2022-12-05T22:45:20.958Z,189.57
2022-12-05T22:47:23.133Z,198.50
2022-12-05T22:49:25.362Z,258.92
2022-12-05T22:51:27.839Z,254.60
2022-12-05T22:53:30.498Z,238.85
2022-12-05T22:55:31.972Z,257.33
2022-12-05T22:57:33.428Z,253.45
2022-12-05T22:59:35.274Z,293.60
2022-12-05T23:01:36.879Z,244.55
2022-12-05T23:03:38.934Z,216.80
2022-12-05T23:05:42.287Z,206.80
2022-12-05T23:07:43.758Z,193.57
2022-12-05T23:09:45.290Z,169.23
2022-12-05T23:11:49.806Z,137.13
2022-12-05T23:13:54.729Z,128.55
2022-12-05T23:15:59.171Z,115.18
2022-12-05T23:18:00.747Z,103.78
2022-12-05T23:20:02.276Z,103.60
2022-12-05T23:22:03.703Z,104.25
2022-12-05T23:24:10.902Z,101.38
2022-12-05T23:26:14.012Z,99.25
2022-12-05T23:28:15.448Z,100.57
2022-12-05T23:30:17.221Z,96.25
2022-12-05T23:32:18.787Z,106.85
2022-12-05T23:34:20.202Z,110.78
2022-12-05T23:36:21.753Z,110.55
2022-12-05T23:38:23.561Z,112.63
2022-12-05T23:40:25.043Z,107.45
2022-12-05T23:42:26.487Z,124.85
2022-12-05T23:44:27.907Z,129.45
2022-12-05T23:46:29.627Z,122.80
2022-12-05T23:48:31.936Z,132.52
2022-12-05T23:50:33.392Z,149.98
2022-12-05T23:52:36.454Z,135.27
2022-12-05T23:54:37.928Z,146.27
2022-12-05T23:56:39.375Z,132.38
2022-12-05T23:58:41.629Z,129.70
